Time;durP1;ratioP1;P1;durP2;ratioP2;P2;SDS_P1;SDS_P2;PMS_P1;PMS_P2;Temp;Humidity;BMP_temperature;BMP_pressure;BME280_temperature;BME280_humidity;BME280_pressure;Samples;Min_cycle;Max_cycle;Signal;HPM_P1;HPM_P2
2023/02/20 00:01:03;;;;;;;13.85;8.63;;;5.50;99.90;;;;;;4996339;28;20153;-81
2023/02/20 00:03:30;;;;;;;13.90;9.15;;;5.60;99.90;;;;;;4996744;28;20117;-80
2023/02/20 00:05:55;;;;;;;13.18;8.68;;;5.60;99.90;;;;;;4996472;28;20627;-81
2023/02/20 00:08:23;;;;;;;15.13;9.60;;;5.70;99.90;;;;;;4984835;28;20065;-80
2023/02/20 00:10:49;;;;;;;17.08;11.57;;;5.70;99.90;;;;;;4996240;28;20037;-81
2023/02/20 00:13:17;;;;;;;17.52;11.13;;;5.70;99.90;;;;;;4995301;28;20041;-80
2023/02/20 00:15:43;;;;;;;16.35;10.73;;;5.80;99.90;;;;;;5010357;28;20081;-81
2023/02/20 00:18:10;;;;;;;21.20;13.05;;;5.80;99.90;;;;;;4982849;28;20057;-81
2023/02/20 00:20:36;;;;;;;19.42;13.13;;;5.80;99.90;;;;;;4983831;28;20111;-81
2023/02/20 00:23:02;;;;;;;19.45;13.48;;;5.80;99.90;;;;;;4983709;28;20508;-81
2023/02/20 00:25:30;;;;;;;18.75;13.18;;;5.80;99.90;;;;;;4995643;28;20042;-81
2023/02/20 00:27:56;;;;;;;18.58;12.40;;;5.80;99.90;;;;;;4995537;28;20034;-81
2023/02/20 00:30:23;;;;;;;20.48;14.40;;;5.80;99.90;;;;;;4984221;28;20038;-82
2023/02/20 00:32:50;;;;;;;19.38;12.82;;;5.80;99.90;;;;;;4995643;28;20038;-80
2023/02/20 00:35:17;;;;;;;19.63;13.05;;;5.80;99.90;;;;;;4984248;28;20388;-81
2023/02/20 00:37:47;;;;;;;18.02;12.43;;;5.80;99.90;;;;;;4984094;28;20073;-81
2023/02/20 00:40:14;;;;;;;19.35;12.32;;;5.90;99.90;;;;;;4995302;28;20038;-81
2023/02/20 00:42:40;;;;;;;14.25;10.07;;;5.90;99.90;;;;;;4983711;28;20037;-82
2023/02/20 00:45:06;;;;;;;19.20;11.90;;;5.90;99.90;;;;;;4983860;28;20038;-81
2023/02/20 00:47:32;;;;;;;20.35;12.52;;;5.90;99.90;;;;;;4997831;28;20184;-82
2023/02/20 00:49:57;;;;;;;20.45;14.23;;;5.90;99.90;;;;;;4985331;28;20523;-80
2023/02/20 00:52:23;;;;;;;21.08;13.05;;;5.90;99.90;;;;;;4983268;28;20035;-82
2023/02/20 00:54:49;;;;;;;18.48;12.88;;;6.00;99.90;;;;;;4982751;28;20050;-81
2023/02/20 00:57:15;;;;;;;19.77;13.20;;;6.00;99.90;;;;;;4983780;28;20595;-81
2023/02/20 00:59:40;;;;;;;18.88;12.68;;;6.00;99.90;;;;;;4988157;28;20049;-80
2023/02/20 01:02:06;;;;;;;19.88;13.00;;;6.00;99.90;;;;;;4988892;28;20034;-82
2023/02/20 01:04:31;;;;;;;20.15;12.45;;;6.00;99.90;;;;;;4974911;28;20489;-83
2023/02/20 01:06:57;;;;;;;18.30;11.73;;;6.00;99.90;;;;;;4987819;28;20041;-82
2023/02/20 01:09:23;;;;;;;18.65;11.77;;;6.00;99.90;;;;;;4988105;28;20046;-81
2023/02/20 01:11:48;;;;;;;19.63;11.98;;;6.00;99.90;;;;;;4988463;28;20093;-83
2023/02/20 01:14:14;;;;;;;15.65;10.23;;;5.90;99.90;;;;;;4987403;28;20045;-81
2023/02/20 01:16:44;;;;;;;17.73;11.18;;;5.90;99.90;;;;;;4988021;28;20073;-82
2023/02/20 01:19:10;;;;;;;19.08;11.10;;;5.80;99.90;;;;;;4987080;28;20046;-81
2023/02/20 01:21:35;;;;;;;17.40;10.60;;;5.80;99.90;;;;;;4988420;28;20109;-81
2023/02/20 01:24:01;;;;;;;19.02;11.30;;;5.80;99.90;;;;;;4970343;28;20038;-81
2023/02/20 01:26:28;;;;;;;16.83;11.23;;;5.70;99.90;;;;;;4974405;28;20085;-80
2023/02/20 01:28:54;;;;;;;17.63;11.75;;;5.70;99.90;;;;;;4974386;28;20099;-82
2023/02/20 01:31:19;;;;;;;16.52;10.68;;;5.70;99.90;;;;;;4975456;28;20041;-82
2023/02/20 01:33:45;;;;;;;15.88;11.07;;;5.70;99.90;;;;;;4976758;28;20117;-80
2023/02/20 01:36:11;;;;;;;16.25;11.43;;;5.70;99.90;;;;;;4976295;28;20046;-82
2023/02/20 01:38:39;;;;;;;18.83;11.57;;;5.70;99.90;;;;;;4974172;28;21035;-80
2023/02/20 01:41:05;;;;;;;16.40;9.40;;;5.70;99.90;;;;;;4974979;28;20404;-80
2023/02/20 01:43:30;;;;;;;15.63;9.85;;;5.70;99.90;;;;;;4975922;28;20043;-81
2023/02/20 01:46:25;;;;;;;16.17;10.27;;;5.60;99.90;;;;;;4988541;28;20121;-81
2023/02/20 01:48:51;;;;;;;16.80;10.48;;;5.70;99.90;;;;;;4993054;28;20045;-81
2023/02/20 01:51:17;;;;;;;16.95;10.88;;;5.70;99.90;;;;;;5001886;28;20125;-82
2023/02/20 01:53:42;;;;;;;19.30;11.93;;;5.60;99.90;;;;;;4990759;28;20460;-81
2023/02/20 01:56:10;;;;;;;21.38;12.50;;;5.60;99.90;;;;;;5001599;28;20046;-80
2023/02/20 01:58:42;;;;;;;17.33;11.98;;;5.70;99.90;;;;;;4989768;28;20137;-81
2023/02/20 02:01:08;;;;;;;18.90;12.50;;;5.70;99.90;;;;;;4989242;28;20093;-82
2023/02/20 02:03:38;;;;;;;19.90;11.80;;;5.70;99.90;;;;;;4989319;28;20030;-81
2023/02/20 02:06:06;;;;;;;18.77;12.75;;;5.70;99.90;;;;;;4990081;28;20129;-80
2023/02/20 02:08:35;;;;;;;18.02;12.13;;;5.70;99.90;;;;;;4989701;28;20027;-81
2023/02/20 02:11:16;;;;;;;19.95;12.02;;;5.70;99.90;;;;;;4986251;28;20045;-83
2023/02/20 02:13:43;;;;;;;24.20;13.88;;;5.60;99.90;;;;;;5015393;28;20069;-80
2023/02/20 02:16:41;;;;;;;23.20;13.82;;;5.60;99.90;;;;;;4997523;28;20081;-80
2023/02/20 02:19:45;;;;;;;22.95;13.98;;;5.60;99.90;;;;;;4986065;28;20032;-82
2023/02/20 02:22:44;;;;;;;18.00;12.35;;;5.60;99.90;;;;;;4986432;28;20922;-81
2023/02/20 02:25:51;;;;;;;24.67;13.52;;;5.70;99.90;;;;;;4985926;28;20030;-81
2023/02/20 02:28:45;;;;;;;21.20;13.05;;;5.60;99.90;;;;;;5012846;28;20080;-81
2023/02/20 02:31:45;;;;;;;19.23;12.35;;;5.60;99.90;;;;;;4986273;28;20076;-81
2023/02/20 02:34:49;;;;;;;18.30;10.93;;;5.60;99.90;;;;;;4998888;28;20062;-82
2023/02/20 02:37:38;;;;;;;19.20;12.52;;;5.60;99.90;;;;;;5000052;28;20137;-81
2023/02/20 02:40:19;;;;;;;17.73;12.77;;;5.60;99.90;;;;;;4985742;28;20041;-81
2023/02/20 02:43:13;;;;;;;25.55;15.10;;;5.70;99.90;;;;;;4986146;28;20038;-81
2023/02/20 02:45:53;;;;;;;29.30;16.10;;;5.80;99.90;;;;;;4997379;28;20034;-81
2023/02/20 02:48:28;;;;;;;27.92;17.02;;;5.90;99.90;;;;;;4984423;28;20437;-80
2023/02/20 02:50:57;;;;;;;28.02;16.15;;;6.00;99.90;;;;;;4983715;28;20042;-81
2023/02/20 02:53:23;;;;;;;24.45;16.17;;;6.00;99.90;;;;;;4972176;28;20046;-81
2023/02/20 02:55:48;;;;;;;22.27;14.68;;;6.00;99.90;;;;;;4984259;28;20053;-81
2023/02/20 02:58:15;;;;;;;21.05;14.20;;;6.10;99.90;;;;;;4971842;28;20034;-83
2023/02/20 03:00:46;;;;;;;26.70;17.48;;;6.10;99.90;;;;;;4982644;28;20070;-82
2023/02/20 03:03:23;;;;;;;26.02;16.02;;;6.10;99.90;;;;;;4983800;28;20042;-83
2023/02/20 03:05:52;;;;;;;32.15;17.83;;;6.10;99.90;;;;;;4984782;28;20164;-83
2023/02/20 03:08:58;;;;;;;31.33;20.70;;;6.20;99.90;;;;;;4973861;28;20181;-81
2023/02/20 03:11:27;;;;;;;37.58;22.05;;;6.20;99.90;;;;;;4971100;28;20034;-80
2023/02/20 03:17:21;;;;;;;32.17;20.40;;;6.20;99.90;;;;;;4983339;28;20048;-82
2023/02/20 03:19:50;;;;;;;28.63;19.05;;;6.20;99.90;;;;;;4971390;28;20501;-81
2023/02/20 03:22:22;;;;;;;30.42;20.25;;;6.20;99.90;;;;;;4971159;28;20031;-83
2023/02/20 03:24:55;;;;;;;37.55;20.77;;;6.20;99.90;;;;;;4971972;28;20093;-81
2023/02/20 03:27:26;;;;;;;34.17;21.70;;;6.30;99.90;;;;;;4984174;28;20038;-82
2023/02/20 03:29:56;;;;;;;34.03;22.40;;;6.30;99.90;;;;;;4971871;28;20042;-82
2023/02/20 03:43:28;;;;;;;38.53;25.33;;;6.30;99.90;;;;;;4984264;28;20108;-81
2023/02/20 03:46:05;;;;;;;45.88;28.33;;;6.30;99.90;;;;;;4985913;28;20037;-80
2023/02/20 03:48:45;;;;;;;45.75;28.25;;;6.30;99.90;;;;;;4986358;28;20035;-82
2023/02/20 03:53:56;;;;;;;46.97;29.15;;;6.40;99.90;;;;;;4984550;28;20161;-79
2023/02/20 03:56:37;;;;;;;40.75;27.67;;;6.30;99.90;;;;;;4972774;28;20058;-82
2023/02/20 03:59:12;;;;;;;43.25;28.15;;;6.40;99.90;;;;;;4988288;28;22556;-79
2023/02/20 04:01:40;;;;;;;44.05;28.92;;;6.40;99.90;;;;;;4988072;28;20266;-79
2023/02/20 04:04:11;;;;;;;45.90;29.27;;;6.40;99.90;;;;;;4989596;28;20035;-81
2023/02/20 04:06:39;;;;;;;44.72;30.15;;;6.50;99.90;;;;;;4973327;28;20393;-80
2023/02/20 04:09:10;;;;;;;45.08;29.85;;;6.50;99.90;;;;;;4985631;28;20031;-83
2023/02/20 04:12:07;;;;;;;44.92;29.58;;;6.50;99.90;;;;;;4982783;28;20497;-80
2023/02/20 04:14:33;;;;;;;46.45;29.67;;;6.50;99.90;;;;;;4983202;28;20076;-81
2023/02/20 04:17:04;;;;;;;58.72;35.22;;;6.60;99.90;;;;;;4982961;28;20045;-81
2023/02/20 04:19:30;;;;;;;50.88;33.05;;;6.60;99.90;;;;;;4984148;28;20085;-80
2023/02/20 04:22:00;;;;;;;53.13;34.17;;;6.60;99.90;;;;;;4969045;28;20126;-82
2023/02/20 04:24:34;;;;;;;53.33;33.78;;;6.60;99.90;;;;;;4971592;28;20070;-81
2023/02/20 04:27:01;;;;;;;52.92;35.38;;;6.70;99.90;;;;;;4980231;28;20037;-81
2023/02/20 04:29:27;;;;;;;53.90;34.50;;;6.70;99.90;;;;;;4969871;28;20026;-79
2023/02/20 04:31:53;;;;;;;55.08;36.28;;;6.70;99.90;;;;;;4970347;28;20058;-82
2023/02/20 04:34:18;;;;;;;55.83;34.10;;;6.70;99.90;;;;;;4968600;28;20034;-80
2023/02/20 04:36:44;;;;;;;60.22;38.05;;;6.70;99.90;;;;;;4981946;28;20045;-81
2023/02/20 04:39:10;;;;;;;56.08;36.42;;;6.80;99.90;;;;;;4980489;28;20031;-80
2023/02/20 04:41:36;;;;;;;53.25;35.08;;;6.80;99.90;;;;;;4968860;28;20143;-80
2023/02/20 04:46:46;;;;;;;47.17;34.35;;;6.80;99.90;;;;;;4981538;28;20121;-81
2023/02/20 04:49:11;;;;;;;60.53;37.47;;;6.80;99.90;;;;;;4971855;28;20054;-81
2023/02/20 04:51:37;;;;;;;58.92;37.97;;;6.80;99.90;;;;;;4981742;28;20137;-82
2023/02/20 04:54:02;;;;;;;54.47;34.72;;;6.80;99.90;;;;;;4974356;28;20046;-81
2023/02/20 04:56:28;;;;;;;54.63;34.45;;;6.80;99.90;;;;;;4981855;28;20046;-82
2023/02/20 04:58:53;;;;;;;58.28;34.83;;;6.90;99.90;;;;;;4975183;28;20121;-80
2023/02/20 05:01:19;;;;;;;59.15;36.17;;;6.90;99.90;;;;;;4981700;28;20049;-81
2023/02/20 05:03:44;;;;;;;57.47;34.17;;;6.90;99.90;;;;;;4981773;28;20039;-81
2023/02/20 05:06:10;;;;;;;57.50;34.70;;;6.90;99.90;;;;;;4975050;28;20043;-80
2023/02/20 05:08:36;;;;;;;63.53;37.03;;;6.90;99.90;;;;;;4974190;28;20031;-81
2023/02/20 05:11:01;;;;;;;55.30;33.85;;;6.90;99.90;;;;;;4975060;28;20050;-82
2023/02/20 05:13:27;;;;;;;52.05;32.25;;;6.90;99.90;;;;;;4981839;28;20042;-83
2023/02/20 05:15:52;;;;;;;53.20;31.77;;;6.90;99.90;;;;;;4979592;28;20050;-81
2023/02/20 05:18:28;;;;;;;50.60;33.00;;;7.00;99.90;;;;;;4977713;28;20034;-81
2023/02/20 05:23:38;;;;;;;57.97;33.05;;;7.00;99.90;;;;;;4977123;28;20132;-82
2023/02/20 05:26:09;;;;;;;45.50;30.20;;;7.00;99.90;;;;;;4974571;28;20125;-83
2023/02/20 05:28:34;;;;;;;45.80;28.30;;;7.10;99.90;;;;;;4977641;28;20587;-80
2023/02/20 05:31:00;;;;;;;49.05;30.38;;;7.10;99.90;;;;;;4982692;28;20118;-83
2023/02/20 05:33:25;;;;;;;47.35;29.35;;;7.10;99.90;;;;;;4981938;28;20111;-81
2023/02/20 05:35:51;;;;;;;50.95;29.58;;;7.10;99.90;;;;;;4977613;28;20108;-81
2023/02/20 05:38:18;;;;;;;46.97;28.27;;;7.20;99.90;;;;;;4977711;28;20031;-80
2023/02/20 05:40:43;;;;;;;46.53;27.63;;;7.10;99.90;;;;;;4976404;28;20035;-82
2023/02/20 05:43:09;;;;;;;45.70;26.67;;;7.20;99.90;;;;;;4980170;28;20207;-81
2023/02/20 05:45:34;;;;;;;44.17;26.85;;;7.20;99.90;;;;;;4981756;28;20092;-81
2023/02/20 05:48:00;;;;;;;40.70;25.95;;;7.30;99.90;;;;;;4982194;28;20035;-81
2023/02/20 05:50:25;;;;;;;42.97;25.25;;;7.30;99.90;;;;;;4999327;28;20054;-82
2023/02/20 05:52:51;;;;;;;43.35;25.67;;;7.30;99.90;;;;;;4986145;28;20093;-82
2023/02/20 05:55:16;;;;;;;41.80;23.73;;;7.30;99.90;;;;;;4986351;28;20103;-82
2023/02/20 05:57:42;;;;;;;42.65;23.33;;;7.30;99.90;;;;;;4986065;28;20037;-82
2023/02/20 06:00:09;;;;;;;41.45;24.88;;;7.30;99.90;;;;;;4997683;28;20117;-82
2023/02/20 06:02:34;;;;;;;39.65;23.23;;;7.30;99.90;;;;;;4986455;28;20476;-83
2023/02/20 06:05:00;;;;;;;38.97;23.00;;;7.40;99.90;;;;;;4985684;28;20042;-80
2023/02/20 06:07:25;;;;;;;36.13;22.00;;;7.40;99.90;;;;;;4985891;28;20117;-83
2023/02/20 06:09:51;;;;;;;43.42;24.58;;;7.40;99.90;;;;;;5000212;28;20040;-81
2023/02/20 06:12:17;;;;;;;40.55;24.17;;;7.40;99.90;;;;;;4996515;28;20058;-81
2023/02/20 06:14:42;;;;;;;37.15;22.83;;;7.40;99.90;;;;;;4999123;28;20054;-83
2023/02/20 06:17:08;;;;;;;41.33;24.48;;;7.40;99.90;;;;;;4984602;28;20492;-84
2023/02/20 06:19:33;;;;;;;48.08;25.80;;;7.50;99.90;;;;;;4986334;28;20046;-82
2023/02/20 06:21:59;;;;;;;43.53;25.05;;;7.40;99.90;;;;;;4984661;28;20096;-80
2023/02/20 06:24:25;;;;;;;42.17;23.42;;;7.50;99.90;;;;;;4983998;28;20400;-81
2023/02/20 06:26:51;;;;;;;43.90;25.10;;;7.50;99.90;;;;;;4985685;28;20045;-79
2023/02/20 06:29:17;;;;;;;45.42;24.85;;;7.50;99.90;;;;;;4998908;28;20038;-82
2023/02/20 06:31:42;;;;;;;47.22;25.90;;;7.50;99.90;;;;;;4981047;28;20557;-81
2023/02/20 06:34:09;;;;;;;49.55;26.90;;;7.50;99.90;;;;;;4997319;28;20029;-82
2023/02/20 06:36:37;;;;;;;44.28;25.02;;;7.50;99.90;;;;;;4987796;28;20042;-80
2023/02/20 06:39:04;;;;;;;45.53;25.42;;;7.60;99.90;;;;;;4999550;28;20030;-81
2023/02/20 06:41:29;;;;;;;49.88;27.05;;;7.60;99.90;;;;;;4997912;28;20134;-81
2023/02/20 06:43:55;;;;;;;44.00;24.60;;;7.60;99.90;;;;;;4986592;28;20942;-79
2023/02/20 06:46:24;;;;;;;45.78;25.67;;;7.60;99.90;;;;;;4997983;28;20064;-81
2023/02/20 06:48:57;;;;;;;48.95;26.15;;;7.60;99.90;;;;;;4999164;28;20058;-80
2023/02/20 06:51:30;;;;;;;43.85;25.70;;;7.60;99.90;;;;;;5002798;28;20035;-81
2023/02/20 06:53:56;;;;;;;;;;;7.60;99.90;;;;;;4999114;28;20412;-81
2023/02/20 06:56:25;;;;;;;40.10;23.05;;;7.60;99.90;;;;;;4982700;28;19917;-82
2023/02/20 06:58:51;;;;;;;37.40;21.50;;;7.70;99.90;;;;;;4979886;28;20042;-80
2023/02/20 07:01:19;;;;;;;43.67;24.63;;;7.70;99.90;;;;;;5011277;28;20041;-82
2023/02/20 07:03:47;;;;;;;39.38;22.88;;;7.80;99.90;;;;;;4995821;28;20792;-79
2023/02/20 07:06:13;;;;;;;35.13;21.80;;;7.70;99.90;;;;;;4996651;28;20096;-79
2023/02/20 07:08:39;;;;;;;38.47;22.15;;;7.70;99.90;;;;;;4984208;28;20305;-79
2023/02/20 07:11:05;;;;;;;36.63;22.80;;;7.70;99.90;;;;;;4996795;28;20125;-81
2023/02/20 07:13:30;;;;;;;41.65;23.33;;;7.70;99.90;;;;;;4996896;28;20452;-79
2023/02/20 07:15:56;;;;;;;40.22;23.63;;;7.80;99.90;;;;;;4998078;28;20119;-80
2023/02/20 07:18:22;;;;;;;45.30;23.67;;;7.70;99.90;;;;;;5010563;28;20596;-82
2023/02/20 07:20:52;;;;;;;35.33;22.98;;;7.80;99.90;;;;;;5010814;28;20050;-81
2023/02/20 07:23:18;;;;;;;47.78;25.83;;;7.80;99.90;;;;;;4979398;28;20488;-80
2023/02/20 07:25:44;;;;;;;41.58;24.42;;;7.80;99.90;;;;;;4982591;28;20076;-79
2023/02/20 07:28:09;;;;;;;41.13;24.25;;;7.80;99.90;;;;;;4999249;28;20033;-81
2023/02/20 07:30:35;;;;;;;46.25;24.83;;;7.80;99.90;;;;;;4984189;28;20038;-83
2023/02/20 07:33:01;;;;;;;37.25;22.60;;;7.80;99.90;;;;;;4983573;28;20034;-81
2023/02/20 07:35:26;;;;;;;41.72;25.88;;;7.80;99.90;;;;;;4984846;28;20092;-81
2023/02/20 07:37:52;;;;;;;50.38;25.73;;;7.90;99.90;;;;;;4985343;28;20065;-82
2023/02/20 07:40:18;;;;;;;48.13;27.25;;;7.90;99.90;;;;;;4984686;28;20031;-82
2023/02/20 07:42:44;;;;;;;47.17;27.90;;;7.90;99.90;;;;;;4995471;28;20105;-82
2023/02/20 07:45:10;;;;;;;44.17;25.90;;;7.90;99.90;;;;;;4983519;28;20565;-81
2023/02/20 07:47:36;;;;;;;46.45;26.65;;;7.90;99.90;;;;;;4984474;28;20038;-83
2023/02/20 07:50:02;;;;;;;47.33;25.92;;;7.90;99.90;;;;;;4983987;28;20049;-81
2023/02/20 07:52:27;;;;;;;45.85;27.20;;;7.90;99.90;;;;;;4997671;28;20049;-78
2023/02/20 07:54:53;;;;;;;42.95;26.55;;;7.90;99.90;;;;;;4996974;28;20041;-82
2023/02/20 07:57:18;;;;;;;53.83;26.85;;;8.00;99.90;;;;;;5000019;28;20034;-83
2023/02/20 07:59:44;;;;;;;47.05;27.85;;;8.00;99.90;;;;;;4997848;28;20513;-83
2023/02/20 08:02:09;;;;;;;44.60;26.95;;;8.00;99.90;;;;;;4986458;28;20483;-83
2023/02/20 08:04:35;;;;;;;39.60;25.05;;;8.00;99.90;;;;;;5000219;28;20038;-82
2023/02/20 08:07:05;;;;;;;42.75;25.00;;;8.00;99.90;;;;;;4989967;28;20045;-80
2023/02/20 08:09:31;;;;;;;45.92;27.23;;;8.00;99.90;;;;;;5014139;28;20038;-77
2023/02/20 08:11:57;;;;;;;42.55;28.02;;;8.00;99.90;;;;;;5016369;28;20040;-79
2023/02/20 08:14:22;;;;;;;47.20;26.25;;;8.00;99.90;;;;;;4987872;28;20042;-81
2023/02/20 08:16:48;;;;;;;46.03;26.27;;;8.10;99.90;;;;;;4998884;28;20377;-82
2023/02/20 08:19:14;;;;;;;46.55;27.23;;;8.10;99.90;;;;;;4985454;28;20127;-81
2023/02/20 08:21:39;;;;;;;41.75;25.70;;;8.10;99.90;;;;;;4999835;28;20173;-82
2023/02/20 08:24:05;;;;;;;42.75;26.45;;;8.10;99.90;;;;;;4986080;28;20498;-81
2023/02/20 08:26:33;;;;;;;40.15;25.63;;;8.10;99.90;;;;;;4996356;28;20045;-82
2023/02/20 08:28:59;;;;;;;41.30;25.92;;;8.10;99.90;;;;;;4983344;28;20076;-81
2023/02/20 08:31:27;;;;;;;41.72;25.30;;;8.10;99.90;;;;;;4985573;28;20038;-82
2023/02/20 08:33:52;;;;;;;43.00;25.55;;;8.10;99.90;;;;;;4979414;28;20041;-80
2023/02/20 08:36:18;;;;;;;44.05;25.75;;;8.20;99.90;;;;;;4984972;28;20039;-82
2023/02/20 08:38:44;;;;;;;40.03;24.13;;;8.20;99.90;;;;;;4985894;28;20037;-82
2023/02/20 08:41:11;;;;;;;39.33;25.02;;;8.20;99.90;;;;;;4984629;28;20040;-82
2023/02/20 08:43:38;;;;;;;42.13;23.27;;;8.20;99.90;;;;;;4984520;28;20146;-83
2023/02/20 08:46:05;;;;;;;39.53;24.85;;;8.30;99.90;;;;;;4983824;28;20049;-83
2023/02/20 08:48:31;;;;;;;41.33;25.00;;;8.20;99.90;;;;;;4994901;28;20054;-83
2023/02/20 08:50:57;;;;;;;43.17;25.90;;;8.30;99.90;;;;;;4968364;28;20078;-81
2023/02/20 08:53:23;;;;;;;44.20;25.55;;;8.30;99.90;;;;;;4971216;28;20057;-82
2023/02/20 08:55:48;;;;;;;37.65;23.20;;;8.30;99.90;;;;;;4984666;28;20114;-81
2023/02/20 08:58:21;;;;;;;39.63;23.95;;;8.40;99.90;;;;;;4972141;28;20037;-83
2023/02/20 09:00:47;;;;;;;45.25;25.55;;;8.40;99.90;;;;;;4981398;28;20038;-80
2023/02/20 09:03:13;;;;;;;44.17;25.13;;;8.40;99.90;;;;;;4983833;28;20038;-82
2023/02/20 09:05:38;;;;;;;39.28;24.48;;;8.40;99.90;;;;;;4972408;28;20053;-81
2023/02/20 09:08:05;;;;;;;43.33;22.40;;;8.50;99.90;;;;;;4972698;28;20034;-82
2023/02/20 09:10:30;;;;;;;40.05;23.58;;;8.50;99.90;;;;;;4982963;28;20038;-82
2023/02/20 09:12:56;;;;;;;37.05;22.02;;;8.50;99.90;;;;;;4970610;28;20047;-80
2023/02/20 09:15:21;;;;;;;38.67;22.38;;;8.60;99.90;;;;;;4968826;28;20050;-80
2023/02/20 09:17:49;;;;;;;35.00;23.48;;;8.60;99.90;;;;;;4964352;28;20041;-83
2023/02/20 09:20:16;;;;;;;34.17;20.75;;;8.60;99.90;;;;;;4984207;28;20148;-83
2023/02/20 09:22:42;;;;;;;33.35;20.20;;;8.60;99.90;;;;;;4972297;28;20037;-82
2023/02/20 09:25:10;;;;;;;30.80;20.10;;;8.70;99.90;;;;;;4985445;28;20050;-84
2023/02/20 09:27:36;;;;;;;36.10;19.80;;;8.70;99.90;;;;;;4973300;28;20061;-83
2023/02/20 09:30:02;;;;;;;37.10;19.80;;;8.70;99.90;;;;;;4974069;28;20069;-81
2023/02/20 09:32:28;;;;;;;32.05;19.58;;;8.70;99.90;;;;;;4985942;28;20038;-82
2023/02/20 09:34:54;;;;;;;30.85;17.45;;;8.70;99.90;;;;;;4976068;28;20089;-81
2023/02/20 09:37:19;;;;;;;28.80;18.45;;;8.70;99.90;;;;;;4973638;28;20373;-83
2023/02/20 09:39:45;;;;;;;32.15;19.40;;;8.80;99.90;;;;;;4972859;28;20065;-81
2023/02/20 09:42:18;;;;;;;33.60;19.10;;;8.80;99.90;;;;;;4972495;28;20507;-80
2023/02/20 09:44:56;;;;;;;27.73;17.48;;;8.80;99.90;;;;;;4974728;28;20427;-80
2023/02/20 09:47:40;;;;;;;34.85;18.60;;;8.80;99.90;;;;;;4984869;28;20101;-82
2023/02/20 09:50:14;;;;;;;32.30;19.48;;;8.80;99.90;;;;;;4971747;28;20046;-80
2023/02/20 09:52:43;;;;;;;31.73;18.98;;;8.80;99.90;;;;;;4971627;28;20043;-82
2023/02/20 09:55:19;;;;;;;33.97;19.48;;;8.80;99.90;;;;;;4972590;28;20035;-79
2023/02/20 09:57:48;;;;;;;27.70;18.83;;;8.80;99.90;;;;;;4985842;28;20053;-82
2023/02/20 10:00:36;;;;;;;26.80;17.88;;;8.80;99.90;;;;;;4973194;28;20034;-80
2023/02/20 10:03:16;;;;;;;29.45;17.45;;;8.80;99.90;;;;;;4985714;28;20117;-81
2023/02/20 10:05:44;;;;;;;31.38;18.35;;;8.80;99.90;;;;;;4972824;28;20035;-81
2023/02/20 10:08:12;;;;;;;34.25;18.40;;;8.80;99.90;;;;;;4985750;28;20045;-81
2023/02/20 10:10:38;;;;;;;25.38;17.52;;;8.80;99.90;;;;;;4971262;28;20084;-83
2023/02/20 10:13:28;;;;;;;32.95;20.33;;;8.80;99.90;;;;;;4985499;28;20490;-84
2023/02/20 10:15:59;;;;;;;30.73;18.65;;;8.80;99.90;;;;;;4983450;28;20144;-84
2023/02/20 10:18:39;;;;;;;32.05;19.58;;;8.70;99.90;;;;;;4972525;28;20031;-81
2023/02/20 10:21:10;;;;;;;26.92;16.45;;;8.80;99.90;;;;;;4973305;28;20077;-80
2023/02/20 10:23:48;;;;;;;29.40;17.00;;;8.80;99.90;;;;;;4983128;28;20114;-82
2023/02/20 10:26:27;;;;;;;26.65;15.95;;;8.80;99.90;;;;;;4984293;28;20046;-81
2023/02/20 10:28:58;;;;;;;27.70;17.77;;;8.80;99.90;;;;;;4972601;28;20037;-83
2023/02/20 10:31:40;;;;;;;26.33;15.73;;;8.80;99.90;;;;;;4974043;28;20114;-82
2023/02/20 10:34:11;;;;;;;27.13;16.35;;;8.90;99.90;;;;;;4980866;28;20038;-82
2023/02/20 10:36:45;;;;;;;29.50;17.00;;;8.80;99.90;;;;;;4973700;28;20129;-81
2023/02/20 10:39:13;;;;;;;34.58;18.98;;;8.90;99.90;;;;;;4971801;28;20093;-81
2023/02/20 10:41:44;;;;;;;32.25;19.10;;;8.80;99.90;;;;;;4972829;28;20117;-80
2023/02/20 10:44:19;;;;;;;39.53;20.38;;;8.80;99.90;;;;;;4973552;28;20041;-80
2023/02/20 10:47:03;;;;;;;30.05;19.65;;;8.90;99.90;;;;;;4983900;28;20038;-82
2023/02/20 10:49:35;;;;;;;35.25;19.95;;;8.90;99.90;;;;;;4986164;28;20053;-80
2023/02/20 10:52:04;;;;;;;32.55;19.73;;;8.90;99.90;;;;;;4980327;28;20046;-81
2023/02/20 10:54:37;;;;;;;39.08;20.95;;;8.90;99.90;;;;;;4968701;28;20035;-81
2023/02/20 10:57:21;;;;;;;34.47;20.83;;;8.90;99.90;;;;;;4982195;28;20042;-79
2023/02/20 11:00:03;;;;;;;33.80;20.58;;;8.90;99.90;;;;;;4971119;28;20066;-82
2023/02/20 11:02:35;;;;;;;33.78;18.98;;;8.90;99.90;;;;;;4963954;28;20465;-82
2023/02/20 11:05:18;;;;;;;28.80;17.52;;;8.90;99.90;;;;;;4966671;28;20034;-82
2023/02/20 11:07:43;;;;;;;26.65;16.55;;;8.90;99.90;;;;;;4965880;28;20069;-81
2023/02/20 11:10:09;;;;;;;31.60;16.63;;;9.00;99.90;;;;;;4966800;28;20519;-81
2023/02/20 11:12:43;;;;;;;20.88;14.48;;;9.00;99.90;;;;;;4979559;28;20031;-81
2023/02/20 11:15:13;;;;;;;23.48;13.77;;;9.00;99.90;;;;;;4978543;28;20091;-80
2023/02/20 11:17:40;;;;;;;28.02;12.85;;;9.00;99.90;;;;;;4979197;28;20149;-85
2023/02/20 11:20:32;;;;;;;21.48;11.90;;;9.10;99.90;;;;;;4978217;28;20111;-83
2023/02/20 11:23:01;;;;;;;19.48;11.27;;;9.10;99.90;;;;;;4978080;28;20081;-81
2023/02/20 11:25:29;;;;;;;19.02;9.93;;;9.10;99.90;;;;;;4966780;28;20027;-81
2023/02/20 11:28:17;;;;;;;19.67;10.68;;;9.10;99.90;;;;;;4966160;28;20062;-81
2023/02/20 11:30:45;;;;;;;26.05;10.07;;;9.10;99.90;;;;;;4968421;28;20050;-84
2023/02/20 11:33:21;;;;;;;17.27;8.57;;;9.10;99.90;;;;;;4966073;28;20269;-82
2023/02/20 11:35:55;;;;;;;16.38;8.13;;;9.10;99.90;;;;;;4966264;28;20049;-83
2023/02/20 11:38:20;;;;;;;17.92;8.27;;;9.20;99.90;;;;;;4979877;28;20034;-82
2023/02/20 11:40:52;;;;;;;16.20;8.10;;;9.20;99.90;;;;;;4983665;28;20049;-82
2023/02/20 11:43:19;;;;;;;19.58;8.02;;;9.20;99.90;;;;;;4967010;28;20137;-82
2023/02/20 11:45:45;;;;;;;18.75;8.40;;;9.20;99.90;;;;;;4979801;28;20065;-83
2023/02/20 11:48:15;;;;;;;19.15;9.15;;;9.20;99.90;;;;;;4977296;28;20393;-84
2023/02/20 11:50:52;;;;;;;14.68;8.02;;;9.20;99.90;;;;;;4985933;28;20057;-83
2023/02/20 11:53:30;;;;;;;21.52;9.48;;;9.20;99.90;;;;;;4995064;28;20567;-83
2023/02/20 11:56:10;;;;;;;16.27;9.52;;;9.20;99.90;;;;;;4996328;28;20045;-87
2023/02/20 11:58:36;;;;;;;14.30;9.07;;;9.20;99.90;;;;;;4985261;28;20040;-82
2023/02/20 12:01:02;;;;;;;12.27;7.80;;;9.20;99.90;;;;;;4985122;28;20037;-85
2023/02/20 12:03:33;;;;;;;16.80;8.23;;;9.20;99.90;;;;;;5015995;28;20132;-84
2023/02/20 12:06:18;;;;;;;15.50;8.30;;;9.20;99.90;;;;;;4998620;28;20039;-81
2023/02/20 12:08:55;;;;;;;17.98;8.40;;;9.20;99.90;;;;;;4994187;28;20042;-83
2023/02/20 12:11:24;;;;;;;17.30;8.52;;;9.30;99.90;;;;;;4990154;28;20050;-83
2023/02/20 12:13:52;;;;;;;16.27;7.88;;;9.30;99.90;;;;;;4984913;28;20038;-84
2023/02/20 12:16:57;;;;;;;17.42;7.20;;;9.30;99.90;;;;;;4983300;28;20060;-81
2023/02/20 12:19:52;;;;;;;14.30;7.45;;;9.30;99.90;;;;;;4983192;28;20140;-81
2023/02/20 12:22:43;;;;;;;12.27;6.47;;;9.30;99.90;;;;;;4981392;28;20148;-80
2023/02/20 12:25:15;;;;;;;11.80;6.80;;;9.30;99.90;;;;;;4981100;28;20096;-81
2023/02/20 12:27:43;;;;;;;12.13;6.15;;;9.30;99.90;;;;;;4985658;28;20050;-82
2023/02/20 12:30:33;;;;;;;14.13;6.07;;;9.30;99.90;;;;;;4981255;28;20045;-83
2023/02/20 12:33:10;;;;;;;9.32;6.07;;;9.30;99.90;;;;;;4983166;28;20080;-83
2023/02/20 12:36:08;;;;;;;11.85;5.28;;;9.30;99.90;;;;;;4985117;28;20069;-83
2023/02/20 12:38:57;;;;;;;11.90;5.72;;;9.40;99.90;;;;;;4981892;28;20046;-84
2023/02/20 12:41:31;;;;;;;11.80;6.07;;;9.40;99.90;;;;;;4970644;28;20132;-83
2023/02/20 12:44:22;;;;;;;10.23;6.20;;;9.40;99.90;;;;;;4979096;28;20487;-84
2023/02/20 12:47:16;;;;;;;8.15;5.40;;;9.40;99.90;;;;;;4986136;28;20034;-82
2023/02/20 12:49:50;;;;;;;12.13;5.93;;;9.40;99.90;;;;;;4994366;28;20387;-84
2023/02/20 12:52:22;;;;;;;14.60;5.88;;;9.40;99.90;;;;;;4971305;28;20202;-84
2023/02/20 12:55:11;;;;;;;11.48;5.40;;;9.50;99.90;;;;;;4985225;28;20076;-83
2023/02/20 12:57:49;;;;;;;8.55;5.35;;;9.50;99.90;;;;;;4973784;28;20046;-83
2023/02/20 13:00:25;;;;;;;9.82;5.78;;;9.50;99.90;;;;;;4972045;28;20038;-81
2023/02/20 13:02:58;;;;;;;12.68;6.07;;;9.50;99.90;;;;;;4970332;28;20114;-82
2023/02/20 13:05:26;;;;;;;13.40;5.78;;;9.50;99.90;;;;;;4969313;28;20117;-82
2023/02/20 13:07:52;;;;;;;16.33;6.30;;;9.50;99.90;;;;;;4981747;28;20049;-81
2023/02/20 13:10:28;;;;;;;10.23;5.50;;;9.50;99.90;;;;;;4981108;28;20061;-82
2023/02/20 13:12:55;;;;;;;12.10;4.82;;;9.50;99.90;;;;;;4961596;28;20061;-82
2023/02/20 13:15:36;;;;;;;9.75;4.95;;;9.50;99.90;;;;;;4968290;28;20047;-84
2023/02/20 13:18:16;;;;;;;10.07;4.85;;;9.50;99.90;;;;;;4979403;28;20088;-83